createdAt,value
2022-08-17T00:02:24.165Z,22.60
2022-08-17T00:04:55.360Z,22.60
2022-08-17T00:07:22.868Z,22.60
2022-08-17T00:09:49.699Z,22.60
2022-08-17T00:12:42.563Z,22.60
2022-08-17T00:15:10.527Z,22.60
2022-08-17T00:17:38.169Z,22.60
2022-08-17T00:20:05.816Z,22.70
2022-08-17T00:22:36.485Z,22.60
2022-08-17T00:25:07.448Z,22.60
2022-08-17T00:27:34.886Z,22.60
2022-08-17T00:30:01.889Z,22.50
2022-08-17T00:33:12.121Z,22.50
2022-08-17T00:35:18.410Z,22.50
2022-08-17T00:37:45.406Z,22.40
2022-08-17T00:40:14.419Z,22.40
2022-08-17T00:42:42.072Z,22.40
2022-08-17T00:45:11.686Z,22.40
2022-08-17T00:47:39.278Z,22.40
2022-08-17T00:50:09.192Z,22.30
2022-08-17T00:52:45.389Z,22.30
2022-08-17T00:55:12.257Z,22.30
2022-08-17T00:57:43.384Z,22.30
2022-08-17T01:00:15.604Z,22.20
2022-08-17T01:02:45.159Z,22.20
2022-08-17T01:05:25.558Z,22.20
2022-08-17T01:07:53.827Z,22.20
2022-08-17T01:10:58.730Z,22.10
2022-08-17T01:13:15.039Z,22.10
2022-08-17T01:15:48.687Z,22.10
2022-08-17T01:18:16.613Z,22.10
2022-08-17T01:20:58.582Z,22.10
2022-08-17T01:23:28.798Z,22.10
2022-08-17T01:25:58.213Z,22.10
2022-08-17T01:28:33.326Z,22.10
2022-08-17T01:31:15.309Z,22.20
2022-08-17T01:33:42.391Z,22.20
2022-08-17T01:36:09.791Z,22.30
2022-08-17T01:38:38.419Z,22.30
2022-08-17T01:41:12.297Z,22.30
2022-08-17T01:43:47.638Z,22.30
2022-08-17T01:46:20.078Z,22.30
2022-08-17T01:48:47.500Z,22.30
2022-08-17T01:51:15.991Z,22.30
2022-08-17T01:53:47.333Z,22.30
2022-08-17T01:56:18.152Z,22.20
2022-08-17T01:58:45.629Z,22.10
2022-08-17T02:01:19.590Z,22.00
2022-08-17T02:03:56.182Z,22.00
2022-08-17T02:06:30.294Z,22.00
2022-08-17T02:09:03.529Z,21.90
2022-08-17T02:11:33.980Z,21.90
2022-08-17T02:14:03.123Z,21.90
2022-08-17T02:16:37.631Z,21.80
2022-08-17T02:19:11.337Z,21.80
2022-08-17T02:21:39.910Z,21.70
2022-08-17T02:24:14.821Z,21.60
2022-08-17T02:26:41.994Z,21.60
2022-08-17T02:29:08.805Z,21.50
2022-08-17T02:31:35.645Z,21.40
2022-08-17T02:34:04.592Z,21.30
2022-08-17T02:36:34.006Z,21.30
2022-08-17T02:39:11.867Z,21.20
2022-08-17T02:41:39.621Z,21.20
2022-08-17T02:44:07.368Z,21.20
2022-08-17T02:46:34.522Z,21.20
2022-08-17T02:49:01.550Z,21.20
2022-08-17T02:51:28.618Z,21.20
2022-08-17T02:54:39.671Z,21.30
2022-08-17T02:56:43.100Z,21.30
2022-08-17T02:59:09.843Z,21.30
2022-08-17T03:01:36.817Z,21.20
2022-08-17T03:04:04.070Z,21.10
2022-08-17T03:06:31.759Z,21.10
2022-08-17T03:08:58.571Z,21.10
2022-08-17T03:11:25.491Z,21.20
2022-08-17T03:13:52.332Z,21.20
2022-08-17T03:16:19.086Z,21.30
2022-08-17T03:18:46.228Z,21.40
2022-08-17T03:21:13.168Z,21.40
2022-08-17T03:23:42.100Z,21.40
2022-08-17T03:26:15.340Z,21.50
2022-08-17T03:28:42.480Z,21.40
2022-08-17T03:31:09.359Z,21.40
2022-08-17T03:33:36.139Z,21.40
2022-08-17T03:36:03.197Z,21.40
2022-08-17T03:38:30.035Z,21.40
2022-08-17T03:41:06.989Z,21.40
2022-08-17T03:43:34.683Z,21.40
2022-08-17T03:46:27.673Z,21.30
2022-08-17T03:49:19.815Z,21.30
2022-08-17T03:52:05.077Z,21.30
2022-08-17T03:54:50.423Z,21.30
2022-08-17T03:57:17.263Z,21.30
2022-08-17T03:59:44.881Z,21.30
2022-08-17T04:02:18.193Z,21.30
2022-08-17T04:04:45.699Z,21.30
2022-08-17T04:07:12.795Z,21.20
2022-08-17T04:09:39.621Z,21.30
2022-08-17T04:12:06.579Z,21.30
2022-08-17T04:14:51.475Z,21.20
2022-08-17T04:17:25.298Z,21.30
2022-08-17T04:19:52.897Z,21.30
2022-08-17T04:22:30.558Z,21.30
2022-08-17T04:25:02.670Z,21.30
2022-08-17T04:27:29.546Z,21.20
2022-08-17T04:29:56.391Z,21.20
2022-08-17T04:32:59.195Z,21.20
2022-08-17T04:35:10.501Z,21.20
2022-08-17T04:37:38.005Z,21.20
2022-08-17T04:40:27.298Z,21.20
2022-08-17T04:43:10.085Z,21.20
2022-08-17T04:45:55.687Z,21.20
2022-08-17T04:48:45.167Z,21.20
2022-08-17T04:51:31.485Z,21.20
2022-08-17T04:54:01.848Z,21.20
2022-08-17T04:56:30.829Z,21.20
2022-08-17T04:59:02.565Z,21.20
2022-08-17T05:01:32.133Z,21.20
2022-08-17T05:04:21.389Z,21.20
2022-08-17T05:06:49.983Z,21.20
2022-08-17T05:09:17.734Z,21.10
2022-08-17T05:11:45.499Z,21.10
2022-08-17T05:14:12.676Z,21.10
2022-08-17T05:16:39.439Z,21.10
2022-08-17T05:19:06.345Z,21.10
2022-08-17T05:21:33.244Z,21.10
2022-08-17T05:24:00.245Z,21.10
2022-08-17T05:26:28.782Z,21.20
2022-08-17T05:28:59.771Z,21.20
2022-08-17T05:31:30.875Z,21.20
2022-08-17T05:33:58.596Z,21.30
2022-08-17T05:36:43.484Z,21.20
2022-08-17T05:39:15.850Z,21.20
2022-08-17T05:41:45.996Z,21.30
2022-08-17T05:44:12.890Z,21.30
2022-08-17T05:46:43.643Z,21.30
2022-08-17T05:49:12.615Z,21.40
2022-08-17T05:51:56.759Z,21.50
2022-08-17T05:54:32.352Z,21.60
2022-08-17T05:57:18.027Z,21.70
2022-08-17T06:00:16.933Z,21.70
2022-08-17T06:03:05.023Z,21.80
2022-08-17T06:06:13.095Z,21.90
2022-08-17T06:08:53.338Z,21.90
2022-08-17T06:11:46.060Z,21.90
2022-08-17T06:14:38.901Z,21.90
2022-08-17T06:17:13.560Z,21.90
2022-08-17T06:19:45.812Z,22.00
2022-08-17T06:22:16.740Z,22.10
2022-08-17T06:25:17.993Z,22.10
2022-08-17T06:27:54.089Z,22.20
2022-08-17T06:30:57.597Z,22.30
2022-08-17T06:33:25.846Z,22.40
2022-08-17T06:36:14.589Z,22.50
2022-08-17T06:39:01.468Z,22.60
2022-08-17T06:41:41.730Z,22.70
2022-08-17T06:44:43.651Z,22.80
2022-08-17T06:47:13.542Z,23.00
2022-08-17T06:49:55.415Z,23.20
2022-08-17T06:52:45.777Z,23.20
2022-08-17T06:55:33.198Z,23.20
2022-08-17T06:58:16.649Z,23.20
2022-08-17T07:00:47.181Z,23.20
2022-08-17T07:03:37.888Z,23.20
2022-08-17T07:06:13.865Z,23.20
2022-08-17T07:09:02.451Z,23.30
2022-08-17T07:11:37.841Z,23.30
2022-08-17T07:14:15.196Z,23.30
2022-08-17T07:16:51.314Z,23.30
2022-08-17T07:19:22.538Z,23.30
2022-08-17T07:21:57.329Z,23.40
2022-08-17T07:24:39.411Z,23.40
2022-08-17T07:27:13.319Z,23.40
2022-08-17T07:29:49.536Z,23.50
2022-08-17T07:32:20.590Z,23.50
2022-08-17T07:35:11.613Z,23.50
2022-08-17T07:37:40.854Z,23.50
2022-08-17T07:40:27.117Z,23.60
2022-08-17T07:43:26.061Z,23.70
2022-08-17T07:46:29.628Z,23.70
2022-08-17T07:49:16.888Z,23.70
2022-08-17T07:51:43.784Z,23.70
2022-08-17T07:54:17.226Z,23.70
2022-08-17T07:56:46.355Z,23.70
2022-08-17T07:59:23.046Z,23.70
2022-08-17T08:01:57.961Z,23.60
2022-08-17T08:07:20.485Z,23.60
2022-08-17T08:10:00.540Z,23.50
2022-08-17T08:12:45.775Z,23.50
2022-08-17T08:15:20.939Z,23.50
2022-08-17T08:17:53.065Z,23.50
2022-08-17T08:20:52.932Z,23.50
2022-08-17T08:23:46.370Z,23.60
2022-08-17T08:26:20.050Z,23.70
2022-08-17T08:29:01.815Z,23.70
2022-08-17T08:31:58.824Z,23.70
2022-08-17T08:35:03.402Z,23.70
2022-08-17T08:37:52.763Z,23.80
2022-08-17T08:40:31.666Z,23.80
2022-08-17T08:43:37.806Z,24.00
2022-08-17T08:46:04.521Z,24.00
2022-08-17T08:49:10.362Z,24.00
2022-08-17T08:51:51.755Z,24.00
2022-08-17T08:54:28.259Z,24.10
2022-08-17T09:00:10.316Z,24.20
2022-08-17T09:03:51.754Z,24.20
2022-08-17T09:06:40.141Z,24.20
2022-08-17T09:09:48.241Z,24.20
2022-08-17T09:12:35.124Z,24.20
2022-08-17T09:15:12.939Z,24.30
2022-08-17T09:18:59.005Z,24.30
2022-08-17T09:20:58.599Z,24.30
2022-08-17T09:23:44.700Z,24.30
2022-08-17T09:26:24.144Z,24.50
2022-08-17T09:28:59.026Z,24.70
2022-08-17T09:31:35.450Z,24.80
2022-08-17T09:34:31.899Z,24.90
2022-08-17T09:37:14.961Z,25.00
2022-08-17T09:40:03.857Z,25.00
2022-08-17T09:42:37.826Z,25.10
2022-08-17T09:45:24.083Z,25.10
2022-08-17T09:48:05.959Z,25.20
2022-08-17T09:50:55.574Z,25.30
2022-08-17T09:53:35.590Z,25.60
2022-08-17T09:56:17.629Z,25.80
2022-08-17T09:58:50.492Z,25.90
2022-08-17T10:01:31.336Z,25.90
2022-08-17T10:04:23.817Z,25.70
2022-08-17T10:07:25.762Z,25.60
2022-08-17T10:10:15.227Z,25.60
2022-08-17T10:12:53.201Z,25.60
2022-08-17T10:15:53.488Z,25.50
2022-08-17T10:18:58.100Z,25.30
2022-08-17T10:21:44.603Z,25.20
2022-08-17T10:25:13.487Z,25.10
2022-08-17T10:27:51.893Z,25.00
2022-08-17T10:30:23.024Z,24.90
2022-08-17T10:32:57.522Z,24.90
2022-08-17T10:35:34.035Z,24.90
2022-08-17T10:38:45.982Z,25.00
2022-08-17T10:41:41.158Z,25.10
2022-08-17T10:44:38.860Z,25.20
2022-08-17T10:47:15.358Z,25.30
2022-08-17T10:49:53.559Z,25.50
2022-08-17T10:52:20.390Z,25.50
2022-08-17T10:55:05.931Z,25.70
2022-08-17T10:57:42.105Z,25.80
2022-08-17T11:00:18.982Z,25.80
2022-08-17T11:02:50.291Z,25.90
2022-08-17T11:05:28.622Z,25.90
2022-08-17T11:08:05.443Z,26.00
2022-08-17T11:10:46.477Z,26.00
2022-08-17T11:13:17.587Z,26.00
2022-08-17T11:16:08.139Z,26.00
2022-08-17T11:18:57.086Z,25.90
2022-08-17T11:21:50.344Z,25.70
2022-08-17T11:24:33.101Z,25.50
2022-08-17T11:27:33.058Z,25.30
2022-08-17T11:30:02.433Z,25.30
2022-08-17T11:32:47.356Z,25.10
2022-08-17T11:35:20.738Z,25.00
2022-08-17T11:38:16.835Z,24.90
2022-08-17T11:40:59.466Z,24.90
2022-08-17T11:43:55.506Z,24.90
2022-08-17T11:47:20.250Z,24.80
2022-08-17T11:50:05.787Z,24.70
2022-08-17T11:52:46.881Z,24.50
2022-08-17T11:55:37.528Z,24.40
2022-08-17T11:58:06.529Z,24.30
2022-08-17T12:00:45.528Z,24.20
2022-08-17T12:03:31.734Z,24.10
2022-08-17T12:06:20.282Z,24.00
2022-08-17T12:09:10.347Z,24.00
2022-08-17T12:11:58.767Z,23.80
2022-08-17T12:15:08.478Z,23.80
2022-08-17T12:17:40.389Z,23.70
2022-08-17T12:20:24.117Z,23.70
2022-08-17T12:23:03.683Z,23.60
2022-08-17T12:25:44.063Z,23.50
2022-08-17T12:28:28.626Z,23.50
2022-08-17T12:31:01.523Z,23.40
2022-08-17T12:33:29.045Z,23.40
2022-08-17T12:36:04.944Z,23.50
2022-08-17T12:38:35.963Z,23.60
2022-08-17T12:41:25.126Z,23.60
2022-08-17T12:44:03.223Z,23.70
2022-08-17T12:46:34.727Z,23.70
2022-08-17T12:49:14.925Z,23.70
2022-08-17T12:51:48.904Z,23.80
2022-08-17T12:54:35.852Z,23.70
2022-08-17T12:57:12.533Z,23.70
2022-08-17T12:59:50.290Z,23.70
2022-08-17T13:02:30.104Z,23.70
2022-08-17T13:05:00.705Z,23.70
2022-08-17T13:07:35.067Z,23.80
2022-08-17T13:10:02.489Z,23.90
2022-08-17T13:12:35.347Z,24.00
2022-08-17T13:15:02.733Z,24.10
2022-08-17T13:17:34.708Z,24.20
2022-08-17T13:20:04.850Z,24.30
2022-08-17T13:22:32.479Z,24.30
2022-08-17T13:25:07.370Z,24.30
2022-08-17T13:27:34.354Z,24.40
2022-08-17T13:30:07.313Z,24.40
2022-08-17T13:32:39.916Z,24.40
2022-08-17T13:35:41.048Z,24.40
2022-08-17T13:38:10.455Z,24.30
2022-08-17T13:40:41.572Z,24.30
2022-08-17T13:43:09.796Z,24.40
2022-08-17T13:45:50.686Z,24.40
2022-08-17T13:48:29.322Z,24.40
2022-08-17T13:50:59.601Z,24.40
2022-08-17T13:53:30.078Z,24.40
2022-08-17T13:56:31.793Z,24.40
2022-08-17T13:59:22.981Z,24.50
2022-08-17T14:02:10.555Z,24.60
2022-08-17T14:04:40.176Z,24.60
2022-08-17T14:07:12.959Z,24.60
2022-08-17T14:09:54.161Z,24.50
2022-08-17T14:12:24.945Z,24.40
2022-08-17T14:14:53.044Z,24.30
2022-08-17T14:17:20.060Z,24.30
2022-08-17T14:19:46.801Z,24.20
2022-08-17T14:22:23.958Z,24.30
2022-08-17T14:24:54.204Z,24.30
2022-08-17T14:27:21.691Z,24.40
2022-08-17T14:29:48.957Z,24.40
2022-08-17T14:32:45.825Z,24.50
2022-08-17T14:35:14.565Z,24.60
2022-08-17T14:37:42.156Z,24.60
2022-08-17T14:40:12.780Z,24.70
2022-08-17T14:42:41.832Z,24.70
2022-08-17T14:45:30.100Z,24.90
2022-08-17T14:47:58.768Z,24.90
2022-08-17T14:50:25.714Z,24.90
2022-08-17T14:52:54.013Z,24.90
2022-08-17T14:55:22.526Z,24.90
2022-08-17T14:57:49.553Z,24.90
2022-08-17T15:00:17.403Z,25.10
2022-08-17T15:02:48.635Z,25.40
2022-08-17T15:05:16.704Z,25.70
2022-08-17T15:07:44.554Z,25.90
2022-08-17T15:10:13.550Z,25.90
2022-08-17T15:12:41.750Z,25.80
2022-08-17T15:15:11.441Z,25.70
2022-08-17T15:17:44.353Z,25.70
2022-08-17T15:20:18.594Z,25.70
2022-08-17T15:22:46.841Z,25.70
2022-08-17T15:25:14.319Z,25.80
2022-08-17T15:27:41.613Z,25.80
2022-08-17T15:30:09.945Z,25.90
2022-08-17T15:32:39.645Z,25.90
2022-08-17T15:35:09.168Z,25.90
2022-08-17T15:37:36.285Z,26.00
2022-08-17T15:40:05.401Z,26.00
2022-08-17T15:42:32.928Z,26.00
2022-08-17T15:45:06.072Z,26.00
2022-08-17T15:47:32.830Z,26.00
2022-08-17T15:50:00.262Z,26.00
2022-08-17T15:52:30.003Z,26.00
2022-08-17T15:55:00.740Z,26.00
2022-08-17T15:57:28.237Z,26.00
2022-08-17T15:59:58.755Z,26.00
2022-08-17T16:03:45.923Z,26.00
2022-08-17T16:05:24.232Z,26.00
2022-08-17T16:07:52.524Z,26.00
2022-08-17T16:10:21.007Z,26.00
2022-08-17T16:12:49.448Z,25.90
2022-08-17T16:15:17.550Z,25.90
2022-08-17T16:17:44.356Z,25.80
2022-08-17T16:20:20.597Z,25.70
2022-08-17T16:22:49.584Z,25.60
2022-08-17T16:25:23.493Z,25.70
2022-08-17T16:28:10.601Z,25.70
2022-08-17T16:30:38.251Z,25.70
2022-08-17T16:33:05.831Z,25.70
2022-08-17T16:35:33.234Z,25.70
2022-08-17T16:38:00.274Z,25.60
2022-08-17T16:40:31.261Z,25.60
2022-08-17T16:43:04.283Z,25.60
2022-08-17T16:45:40.078Z,25.60
2022-08-17T16:48:08.235Z,25.60
2022-08-17T16:50:35.502Z,25.60
2022-08-17T16:53:08.186Z,25.50
2022-08-17T16:55:35.716Z,25.50
2022-08-17T16:58:06.678Z,25.40
2022-08-17T17:00:34.004Z,25.40
2022-08-17T17:03:20.388Z,25.40
2022-08-17T17:05:57.820Z,25.40
2022-08-17T17:09:02.187Z,25.40
2022-08-17T17:11:45.497Z,25.30
2022-08-17T17:14:21.037Z,25.20
2022-08-17T17:17:11.815Z,25.10
2022-08-17T17:19:41.269Z,25.00
2022-08-17T17:22:18.812Z,25.00
2022-08-17T17:25:04.412Z,24.90
2022-08-17T17:27:47.388Z,24.90
2022-08-17T17:30:46.034Z,24.80
2022-08-17T17:33:24.663Z,24.80
2022-08-17T17:35:56.799Z,24.80
2022-08-17T17:38:33.818Z,24.80
2022-08-17T17:41:05.494Z,24.80
2022-08-17T17:43:39.716Z,24.90
2022-08-17T17:46:28.278Z,24.90
2022-08-17T17:48:59.889Z,25.00
2022-08-17T17:52:06.484Z,24.90
2022-08-17T17:54:52.171Z,24.90
2022-08-17T17:57:49.411Z,24.90
2022-08-17T18:00:24.267Z,24.90
2022-08-17T18:03:12.739Z,24.90
2022-08-17T18:05:48.827Z,24.90
2022-08-17T18:08:41.394Z,25.00
2022-08-17T18:11:27.127Z,25.00
2022-08-17T18:14:14.295Z,24.90
2022-08-17T18:16:42.745Z,24.90
2022-08-17T18:19:14.612Z,24.90
2022-08-17T18:21:45.894Z,24.80
2022-08-17T18:24:14.079Z,24.60
2022-08-17T18:26:52.856Z,24.50
2022-08-17T18:29:27.661Z,24.30
2022-08-17T18:32:16.360Z,24.00
2022-08-17T18:34:47.799Z,23.90
2022-08-17T18:37:56.017Z,23.70
2022-08-17T18:40:30.679Z,23.60
2022-08-17T18:43:27.635Z,23.60
2022-08-17T18:46:28.151Z,23.50
2022-08-17T18:49:02.184Z,23.40
2022-08-17T18:51:41.834Z,23.30
2022-08-17T18:54:22.365Z,23.20
2022-08-17T18:56:51.375Z,23.10
2022-08-17T18:59:42.770Z,23.00
2022-08-17T19:02:20.579Z,22.90
2022-08-17T19:05:01.204Z,22.80
2022-08-17T19:07:41.452Z,22.70
2022-08-17T19:10:14.671Z,22.70
2022-08-17T19:13:12.426Z,22.60
2022-08-17T19:16:11.908Z,22.60
2022-08-17T19:18:50.861Z,22.50
2022-08-17T19:21:17.812Z,22.40
2022-08-17T19:23:53.359Z,22.40
2022-08-17T19:26:53.977Z,22.30
2022-08-17T19:29:44.375Z,22.30
2022-08-17T19:32:15.711Z,22.30
2022-08-17T19:34:44.399Z,22.20
2022-08-17T19:37:17.014Z,22.20
2022-08-17T19:39:55.781Z,22.20
2022-08-17T19:42:39.262Z,22.20
2022-08-17T19:45:35.256Z,22.20
2022-08-17T19:48:20.616Z,22.20
2022-08-17T19:51:06.282Z,22.20
2022-08-17T19:54:01.739Z,22.20
2022-08-17T19:57:01.788Z,22.20
2022-08-17T20:00:01.806Z,22.20
2022-08-17T20:02:37.018Z,22.10
2022-08-17T20:05:15.167Z,22.10
2022-08-17T20:08:11.046Z,22.00
2022-08-17T20:10:48.124Z,22.00
2022-08-17T20:13:45.273Z,22.00
2022-08-17T20:16:12.347Z,22.00
2022-08-17T20:19:04.166Z,21.90
2022-08-17T20:21:58.875Z,21.90
2022-08-17T20:24:53.665Z,21.90
2022-08-17T20:27:28.012Z,21.80
2022-08-17T20:30:04.743Z,21.80
2022-08-17T20:32:52.049Z,21.70
2022-08-17T20:35:39.379Z,21.70
2022-08-17T20:38:12.968Z,21.60
2022-08-17T20:40:55.272Z,21.60
2022-08-17T20:43:35.482Z,21.60
2022-08-17T20:46:40.359Z,21.60
2022-08-17T20:49:41.293Z,21.50
2022-08-17T20:52:13.419Z,21.50
2022-08-17T20:54:47.947Z,21.50
2022-08-17T20:57:38.023Z,21.40
2022-08-17T21:00:17.241Z,21.40
2022-08-17T21:02:50.336Z,21.40
2022-08-17T21:05:34.839Z,21.40
2022-08-17T21:08:15.067Z,21.40
2022-08-17T21:10:45.545Z,21.40
2022-08-17T21:13:13.908Z,21.40
2022-08-17T21:15:43.839Z,21.40
2022-08-17T21:18:32.326Z,21.30
2022-08-17T21:21:20.759Z,21.30
2022-08-17T21:24:08.478Z,21.30
2022-08-17T21:26:51.352Z,21.30
2022-08-17T21:29:31.488Z,21.30
2022-08-17T21:31:59.445Z,21.30
2022-08-17T21:34:39.226Z,21.30
2022-08-17T21:37:26.270Z,21.20
2022-08-17T21:40:09.899Z,21.20
2022-08-17T21:42:44.299Z,21.10
2022-08-17T21:45:24.492Z,21.10
2022-08-17T21:48:14.599Z,21.10
2022-08-17T21:50:44.739Z,21.00
2022-08-17T21:53:28.080Z,21.00
2022-08-17T21:55:57.648Z,21.00
2022-08-17T21:58:31.186Z,21.00
2022-08-17T22:01:20.613Z,21.00
2022-08-17T22:03:56.457Z,20.90
2022-08-17T22:06:35.261Z,20.90
2022-08-17T22:09:07.773Z,20.90
2022-08-17T22:12:06.784Z,20.90
2022-08-17T22:14:52.606Z,20.90
2022-08-17T22:17:29.447Z,20.80
2022-08-17T22:20:01.394Z,20.80
2022-08-17T22:23:04.278Z,20.80
2022-08-17T22:25:34.142Z,20.80
2022-08-17T22:28:04.231Z,20.70
2022-08-17T22:30:38.569Z,20.70
2022-08-17T22:33:31.367Z,20.70
2022-08-17T22:36:29.050Z,20.80
2022-08-17T22:39:22.533Z,20.70
2022-08-17T22:42:00.128Z,20.60
2022-08-17T22:44:36.343Z,20.60
2022-08-17T22:47:15.063Z,20.60
2022-08-17T22:49:54.132Z,20.60
2022-08-17T22:52:33.206Z,20.60
2022-08-17T22:55:26.804Z,20.60
2022-08-17T22:58:12.100Z,20.50
2022-08-17T23:00:42.116Z,20.50
2022-08-17T23:03:19.831Z,20.50
2022-08-17T23:06:06.906Z,20.40
2022-08-17T23:08:37.552Z,20.40
2022-08-17T23:11:06.602Z,20.40
2022-08-17T23:13:33.482Z,20.40
2022-08-17T23:16:00.426Z,20.50
2022-08-17T23:18:27.362Z,20.50
2022-08-17T23:20:54.404Z,20.60
2022-08-17T23:23:23.921Z,20.60
2022-08-17T23:25:50.985Z,20.60
2022-08-17T23:28:17.743Z,20.60
2022-08-17T23:30:45.896Z,20.50
2022-08-17T23:33:29.973Z,20.50
2022-08-17T23:35:59.991Z,20.50
2022-08-17T23:38:27.526Z,20.50
2022-08-17T23:40:55.646Z,20.50
2022-08-17T23:43:25.314Z,20.50
2022-08-17T23:45:56.113Z,20.60
2022-08-17T23:48:32.573Z,20.60
2022-08-17T23:51:17.287Z,20.60
2022-08-17T23:53:55.432Z,20.60
2022-08-17T23:56:25.720Z,20.60
2022-08-17T23:58:54.875Z,20.60
